createdAt,value
2023-04-22T00:04:05.001Z,100844.47
2023-04-22T00:09:06.900Z,100840.19
2023-04-22T00:14:08.416Z,100834.91
2023-04-22T00:19:09.987Z,100832.00
2023-04-22T00:24:11.502Z,100841.19
2023-04-22T00:29:13.015Z,100832.84
2023-04-22T00:34:14.535Z,100829.47
2023-04-22T00:39:16.183Z,100826.72
2023-04-22T00:44:18.558Z,100823.53
2023-04-22T00:49:20.515Z,100830.84
2023-04-22T00:54:21.977Z,100835.44
2023-04-22T00:59:25.364Z,100833.88
2023-04-22T01:04:26.953Z,100826.72
2023-04-22T01:09:28.890Z,100825.88
2023-04-22T01:14:30.501Z,100832.19
2023-04-22T01:19:32.950Z,100829.47
2023-04-22T01:24:34.774Z,100827.41
2023-04-22T01:29:38.314Z,100819.25
2023-04-22T01:34:40.243Z,100827.41
2023-04-22T01:39:41.962Z,100822.44
2023-04-22T01:44:43.648Z,100824.69
2023-04-22T01:49:45.298Z,100820.81
2023-04-22T01:54:48.396Z,100828.13
2023-04-22T01:59:49.926Z,100828.97
2023-04-22T02:04:51.583Z,100828.13
2023-04-22T02:09:53.385Z,100824.69
2023-04-22T02:14:54.853Z,100821.59
2023-04-22T02:19:56.442Z,100824.66
2023-04-22T02:24:58.219Z,100824.28
2023-04-22T02:29:59.710Z,100823.69
2023-04-22T02:35:02.017Z,100822.00
2023-04-22T02:40:04.365Z,100820.75
2023-04-22T02:45:06.504Z,100815.78
2023-04-22T02:50:08.389Z,100817.31
2023-04-22T02:55:10.082Z,100812.91
2023-04-22T03:00:11.846Z,100806.06
2023-04-22T03:05:13.385Z,100803.81
2023-04-22T03:10:15.155Z,100803.25
2023-04-22T03:15:19.614Z,100798.16
2023-04-22T03:20:22.775Z,100793.88
2023-04-22T03:25:25.395Z,100789.75
2023-04-22T03:30:26.970Z,100779.03
2023-04-22T03:35:28.448Z,100783.41
2023-04-22T03:40:29.913Z,100783.41
2023-04-22T03:45:31.538Z,100777.72
2023-04-22T03:50:33.499Z,100779.03
2023-04-22T03:55:35.257Z,100760.31
2023-04-22T04:00:36.828Z,100764.91
2023-04-22T04:05:38.465Z,100765.84
2023-04-22T04:10:40.102Z,100761.88
2023-04-22T04:15:41.992Z,100757.19
2023-04-22T04:20:43.485Z,100750.69
2023-04-22T04:25:45.487Z,100743.22
2023-04-22T04:30:47.132Z,100745.25
2023-04-22T04:35:48.801Z,100751.38
2023-04-22T04:40:50.884Z,100745.53
2023-04-22T04:45:52.754Z,100742.59
2023-04-22T04:50:54.372Z,100743.75
2023-04-22T04:55:55.911Z,100739.94
2023-04-22T05:00:57.379Z,100738.38
2023-04-22T05:05:59.022Z,100731.38
2023-04-22T05:11:00.526Z,100735.44
2023-04-22T05:16:02.006Z,100738.53
2023-04-22T05:21:04.302Z,100741.72
2023-04-22T05:26:06.025Z,100749.03
2023-04-22T05:31:07.553Z,100747.75
2023-04-22T05:36:09.062Z,100756.03
2023-04-22T05:41:10.546Z,100749.03
2023-04-22T05:46:12.068Z,100746.75
2023-04-22T05:51:13.689Z,100738.03
2023-04-22T05:56:15.425Z,100738.59
2023-04-22T06:01:17.050Z,100744.47
2023-04-22T06:06:18.856Z,100754.47
2023-04-22T06:11:20.638Z,100755.03
2023-04-22T06:16:23.225Z,100753.56
2023-04-22T06:21:24.823Z,100765.00
2023-04-22T06:26:26.895Z,100761.09
2023-04-22T06:31:28.474Z,100748.38
2023-04-22T06:36:30.914Z,100739.19
2023-04-22T06:41:35.231Z,100741.75
2023-04-22T06:46:38.187Z,100734.09
2023-04-22T06:51:39.753Z,100713.47
2023-04-22T06:56:41.308Z,100711.63
2023-04-22T07:01:42.893Z,100718.97
2023-04-22T07:06:44.615Z,100701.25
2023-04-22T07:11:46.374Z,100702.94
2023-04-22T07:16:48.069Z,100702.94
2023-04-22T07:21:49.783Z,100690.31
2023-04-22T07:26:51.314Z,100684.84
2023-04-22T07:31:53.021Z,100678.19
2023-04-22T07:36:54.619Z,100672.72
2023-04-22T07:41:57.716Z,100669.47
2023-04-22T07:46:59.602Z,100683.13
2023-04-22T07:52:01.191Z,100672.03
2023-04-22T07:57:02.899Z,100674.53
2023-04-22T08:02:04.525Z,100692.34
2023-04-22T08:07:17.063Z,100695.53
2023-04-22T08:12:27.807Z,100693.50
2023-04-22T08:17:29.356Z,100678.63
2023-04-22T08:22:32.079Z,100678.13
2023-04-22T08:27:33.650Z,100691.41
2023-04-22T08:32:35.323Z,100698.56
2023-04-22T08:37:36.994Z,100699.28
2023-04-22T08:42:38.619Z,100694.19
2023-04-22T08:47:40.590Z,100683.75
2023-04-22T08:52:43.540Z,100669.69
2023-04-22T08:57:45.457Z,100649.19
2023-04-22T09:02:48.318Z,100639.66
2023-04-22T09:07:50.056Z,100640.97
2023-04-22T09:12:52.032Z,100653.09
2023-04-22T09:17:54.062Z,100656.84
2023-04-22T09:22:57.452Z,100658.47
2023-04-22T09:27:59.451Z,100660.66
2023-04-22T09:33:04.237Z,100662.00
2023-04-22T09:38:09.112Z,100667.47
2023-04-22T09:43:11.558Z,100663.75
2023-04-22T09:48:15.549Z,100655.53
2023-04-22T09:53:19.625Z,100652.72
2023-04-22T09:58:23.831Z,100646.19
2023-04-22T10:03:25.857Z,100660.44
2023-04-22T10:08:28.364Z,100632.88
2023-04-22T10:13:29.881Z,100631.91
2023-04-22T10:18:33.124Z,100624.00
2023-04-22T10:23:34.702Z,100613.75
2023-04-22T10:28:41.933Z,100599.47
2023-04-22T10:33:43.458Z,100581.53
2023-04-22T10:38:50.976Z,100598.50
2023-04-22T10:44:00.405Z,100596.91
2023-04-22T10:49:13.046Z,100633.31
2023-04-22T10:54:31.858Z,100632.22
2023-04-22T10:59:57.668Z,100628.78
2023-04-22T11:05:19.384Z,100641.91
2023-04-22T11:10:32.790Z,100629.25
2023-04-22T11:15:37.436Z,100626.44
2023-04-22T11:20:39.069Z,100623.22
2023-04-22T11:25:40.763Z,100624.06
2023-04-22T11:30:42.350Z,100612.53
2023-04-22T11:35:44.078Z,100618.63
2023-04-22T11:40:46.850Z,100611.63
2023-04-22T11:45:48.873Z,100609.34
2023-04-22T11:51:07.747Z,100596.56
2023-04-22T11:56:09.414Z,100594.31
2023-04-22T12:01:13.708Z,100596.44
2023-04-22T12:06:16.540Z,100593.91
2023-04-22T12:11:18.071Z,100598.81
2023-04-22T12:16:20.496Z,100598.56
2023-04-22T12:21:24.634Z,100597.66
2023-04-22T12:26:27.611Z,100592.66
2023-04-22T12:31:29.476Z,100587.13
2023-04-22T12:36:32.501Z,100569.63
2023-04-22T12:41:34.030Z,100600.84
2023-04-22T12:46:36.336Z,100614.16
2023-04-22T12:51:37.859Z,100600.56
2023-04-22T12:56:39.329Z,100601.88
2023-04-22T13:01:42.591Z,100590.56
2023-04-22T13:06:44.418Z,100596.41
2023-04-22T13:11:49.162Z,100631.31
2023-04-22T13:16:51.952Z,100613.00
2023-04-22T13:21:53.454Z,100627.63
2023-04-22T13:26:54.957Z,100633.94
2023-04-22T13:31:56.575Z,100645.94
2023-04-22T13:36:58.365Z,100654.28
2023-04-22T13:42:00.306Z,100612.97
2023-04-22T13:47:02.835Z,100581.03
2023-04-22T13:52:04.455Z,100545.41
2023-04-22T13:57:05.996Z,100556.34
2023-04-22T14:02:07.911Z,100549.72
2023-04-22T14:07:09.438Z,100552.78
2023-04-22T14:12:11.844Z,100566.22
2023-04-22T14:17:13.509Z,100574.69
2023-04-22T14:22:15.046Z,100576.38
2023-04-22T14:27:16.515Z,100578.47
2023-04-22T14:32:19.335Z,100569.69
2023-04-22T14:37:21.894Z,100599.66
2023-04-22T14:42:25.469Z,100594.44
2023-04-22T14:47:27.034Z,100592.41
2023-04-22T14:52:28.614Z,100619.63
2023-04-22T14:57:30.412Z,100630.94
2023-04-22T15:02:33.156Z,100623.44
2023-04-22T15:07:34.735Z,100629.09
2023-04-22T15:12:36.448Z,100642.91
2023-04-22T15:17:37.983Z,100640.19
2023-04-22T15:22:42.809Z,100647.16
2023-04-22T15:27:44.343Z,100655.53
2023-04-22T15:32:45.826Z,100648.72
2023-04-22T15:37:47.450Z,100660.81
2023-04-22T15:42:48.984Z,100654.19
2023-04-22T15:47:52.295Z,100677.88
2023-04-22T15:52:54.323Z,100679.41
2023-04-22T15:57:55.916Z,100671.59
2023-04-22T16:02:58.262Z,100669.00
2023-04-22T16:07:59.915Z,100683.66
2023-04-22T16:13:01.434Z,100678.81
2023-04-22T16:18:04.700Z,100689.06
2023-04-22T16:23:06.364Z,100685.69
2023-04-22T16:28:10.375Z,100684.50
2023-04-22T16:33:14.471Z,100675.63
2023-04-22T16:38:16.556Z,100676.28
2023-04-22T16:43:18.106Z,100665.56
2023-04-22T16:48:19.632Z,100667.09
2023-04-22T16:53:21.194Z,100671.72
2023-04-22T16:58:22.876Z,100661.66
2023-04-22T17:03:25.282Z,100659.28
2023-04-22T17:08:26.860Z,100665.94
2023-04-22T17:13:29.426Z,100673.09
2023-04-22T17:18:31.048Z,100665.78
2023-04-22T17:23:32.536Z,100674.81
2023-04-22T17:28:34.267Z,100665.44
2023-04-22T17:33:36.750Z,100659.78
2023-04-22T17:38:38.306Z,100652.81
2023-04-22T17:43:40.499Z,100658.09
2023-04-22T17:48:42.370Z,100665.78
2023-04-22T17:53:43.924Z,100671.59
2023-04-22T17:58:45.594Z,100658.94
2023-04-22T18:03:47.485Z,100648.41
2023-04-22T18:08:49.279Z,100656.41
2023-04-22T18:13:50.805Z,100646.16
2023-04-22T18:18:52.336Z,100657.09
2023-04-22T18:23:54.132Z,100657.56
2023-04-22T18:28:55.744Z,100671.34
2023-04-22T18:33:57.285Z,100671.69
2023-04-22T18:38:58.802Z,100677.94
2023-04-22T18:44:00.406Z,100692.75
2023-04-22T18:49:01.947Z,100698.34
2023-04-22T18:54:03.648Z,100699.50
2023-04-22T18:59:05.624Z,100699.34
2023-04-22T19:04:08.014Z,100715.63
2023-04-22T19:09:09.684Z,100712.19
2023-04-22T19:14:13.615Z,100715.38
2023-04-22T19:19:15.126Z,100723.00
2023-04-22T19:24:16.705Z,100732.44
2023-04-22T19:29:18.304Z,100743.22
2023-04-22T19:34:19.795Z,100738.75
2023-04-22T19:39:21.477Z,100743.09
2023-04-22T19:44:23.171Z,100748.34
2023-04-22T19:49:24.833Z,100751.28
2023-04-22T19:54:28.182Z,100751.16
2023-04-22T19:59:31.589Z,100759.44
2023-04-22T20:04:33.706Z,100763.66
2023-04-22T20:09:36.385Z,100764.97
2023-04-22T20:14:39.092Z,100753.41
2023-04-22T20:19:40.843Z,100750.47
2023-04-22T20:24:43.981Z,100750.22
2023-04-22T20:29:46.589Z,100751.00
2023-04-22T20:34:48.357Z,100746.72
2023-04-22T20:39:51.207Z,100748.41
2023-04-22T20:44:52.711Z,100749.91
2023-04-22T20:49:54.169Z,100740.91
2023-04-22T20:54:56.550Z,100745.94
2023-04-22T20:59:58.275Z,100747.41
2023-04-22T21:05:00.514Z,100744.59
2023-04-22T21:10:02.287Z,100737.31
2023-04-22T21:15:04.188Z,100725.75
2023-04-22T21:20:06.862Z,100726.19
2023-04-22T21:25:09.148Z,100718.91
2023-04-22T21:30:11.496Z,100723.66
2023-04-22T21:35:13.050Z,100728.19
2023-04-22T21:40:14.715Z,100720.22
2023-04-22T21:45:17.345Z,100722.25
2023-04-22T21:50:20.755Z,100721.00
2023-04-22T21:55:22.530Z,100725.88
2023-04-22T22:00:24.977Z,100721.13
2023-04-22T22:05:26.479Z,100722.44
2023-04-22T22:10:28.072Z,100726.78
2023-04-22T22:15:29.677Z,100720.22
2023-04-22T22:20:31.715Z,100718.53
2023-04-22T22:25:33.288Z,100720.56
2023-04-22T22:30:34.763Z,100724.28
2023-04-22T22:35:36.329Z,100723.72
2023-04-22T22:40:37.837Z,100728.31
2023-04-22T22:45:39.832Z,100722.31
2023-04-22T22:50:41.425Z,100718.28
2023-04-22T22:55:42.971Z,100725.41
2023-04-22T23:00:44.599Z,100726.13
2023-04-22T23:05:46.091Z,100726.38
2023-04-22T23:10:47.605Z,100735.63
2023-04-22T23:15:49.117Z,100726.94
2023-04-22T23:20:51.833Z,100729.47
2023-04-22T23:25:53.606Z,100739.09
2023-04-22T23:30:56.216Z,100748.88
2023-04-22T23:36:00.022Z,100745.56
2023-04-22T23:41:01.485Z,100734.22
2023-04-22T23:46:03.040Z,100729.00
2023-04-22T23:51:04.671Z,100738.41
2023-04-22T23:56:06.638Z,100733.69
